Time;durP1;ratioP1;P1;durP2;ratioP2;P2;SDS_P1;SDS_P2;PMS_P1;PMS_P2;Temp;Humidity;BMP_temperature;BMP_pressure;BME280_temperature;BME280_humidity;BME280_pressure;Samples;Min_cycle;Max_cycle;Signal;HPM_P1;HPM_P2
2023/03/07 00:00:30;;;;;;;5.43;4.20;;;;;;;3.59;100.00;99813.44;5017352;28;20036;-58
2023/03/07 00:02:55;;;;;;;5.28;4.40;;;;;;;3.58;100.00;99809.19;5019085;28;20479;-58
2023/03/07 00:05:21;;;;;;;5.80;3.55;;;;;;;3.56;100.00;99811.09;5029329;28;20044;-58
2023/03/07 00:07:46;;;;;;;5.43;3.58;;;;;;;3.49;100.00;99804.78;5018043;28;20034;-58
2023/03/07 00:10:11;;;;;;;5.93;3.40;;;;;;;3.43;100.00;99811.41;5015024;28;20140;-58
2023/03/07 00:12:36;;;;;;;4.53;3.65;;;;;;;3.57;100.00;99807.53;5018743;28;20026;-58
2023/03/07 00:15:03;;;;;;;3.50;2.87;;;;;;;3.48;100.00;99808.38;5017003;28;20056;-58
2023/03/07 00:17:28;;;;;;;3.00;2.60;;;;;;;3.47;100.00;99801.47;5016929;28;20121;-58
2023/03/07 00:19:53;;;;;;;3.60;2.50;;;;;;;3.31;100.00;99802.88;5019607;28;20176;-58
2023/03/07 00:22:19;;;;;;;2.50;2.30;;;;;;;3.29;100.00;99799.56;5023967;28;20034;-59
2023/03/07 00:24:47;;;;;;;3.58;2.13;;;;;;;3.22;100.00;99799.28;5028781;28;20111;-57
2023/03/07 00:27:12;;;;;;;2.30;2.10;;;;;;;3.21;100.00;99786.34;5021338;28;20529;-58
2023/03/07 00:29:37;;;;;;;3.73;2.47;;;;;;;3.14;100.00;99793.09;5023107;28;20191;-58
2023/03/07 00:32:03;;;;;;;2.53;2.10;;;;;;;3.15;100.00;99786.91;5029289;28;20159;-57
2023/03/07 00:34:28;;;;;;;6.23;2.57;;;;;;;3.13;100.00;99783.56;5033262;28;20040;-58
2023/03/07 00:36:53;;;;;;;4.17;2.30;;;;;;;3.14;100.00;99779.97;5031406;28;20029;-58
2023/03/07 00:39:19;;;;;;;2.10;1.90;;;;;;;3.12;100.00;99789.78;5029257;28;20026;-58
2023/03/07 00:41:44;;;;;;;2.20;2.00;;;;;;;3.16;100.00;99788.56;5041754;28;20033;-60
2023/03/07 00:44:09;;;;;;;2.33;2.13;;;;;;;3.19;100.00;99785.63;5015199;28;20039;-58
2023/03/07 00:46:35;;;;;;;2.00;1.80;;;;;;;3.24;100.00;99786.06;5042565;28;20036;-58
2023/03/07 00:49:00;;;;;;;2.87;2.10;;;;;;;3.27;100.00;99771.84;5032056;28;20033;-58
2023/03/07 00:51:25;;;;;;;3.20;2.00;;;;;;;3.16;100.00;99778.88;5035077;28;20037;-58
2023/03/07 00:53:51;;;;;;;2.43;2.13;;;;;;;3.23;100.00;99774.75;5027322;28;20029;-58
2023/03/07 00:56:22;;;;;;;2.40;2.20;;;;;;;3.25;100.00;99777.22;5023458;28;20049;-58
2023/03/07 00:58:48;;;;;;;2.87;2.17;;;;;;;3.13;100.00;99779.19;5017496;28;20030;-58
2023/03/07 01:01:20;;;;;;;3.20;2.50;;;;;;;3.13;100.00;99773.94;5020132;28;20439;-58
2023/03/07 01:03:48;;;;;;;3.00;2.60;;;;;;;3.16;100.00;99772.84;5024823;28;20025;-58
2023/03/07 01:06:16;;;;;;;3.07;2.60;;;;;;;3.21;100.00;99768.00;5032934;28;20045;-58
2023/03/07 01:08:41;;;;;;;3.75;2.88;;;;;;;3.20;100.00;99768.94;5029652;28;20485;-59
2023/03/07 01:11:07;;;;;;;4.00;3.17;;;;;;;3.21;100.00;99760.16;5028589;28;20036;-58
2023/03/07 01:13:34;;;;;;;3.28;2.90;;;;;;;3.27;100.00;99764.81;5022344;28;20488;-59
2023/03/07 01:16:21;;;;;;;4.50;3.50;;;;;;;3.15;100.00;99755.47;5017156;28;20414;-59
2023/03/07 01:18:52;;;;;;;3.90;3.50;;;;;;;3.20;100.00;99753.22;5023011;28;20037;-58
2023/03/07 01:21:29;;;;;;;4.67;3.50;;;;;;;3.16;100.00;99757.13;5029016;28;20028;-58
2023/03/07 01:23:54;;;;;;;4.80;3.77;;;;;;;3.17;100.00;99754.38;5023295;28;20624;-58
2023/03/07 01:26:22;;;;;;;4.40;3.53;;;;;;;3.18;100.00;99747.31;5028712;28;20029;-58
2023/03/07 01:28:50;;;;;;;5.80;3.97;;;;;;;3.30;100.00;99754.03;5020970;28;20057;-57
2023/03/07 01:31:16;;;;;;;4.87;4.20;;;;;;;3.24;100.00;99749.38;5012754;28;20025;-58
2023/03/07 01:33:41;;;;;;;5.17;4.07;;;;;;;3.25;100.00;99750.22;5027266;28;20026;-59
2023/03/07 01:36:34;;;;;;;4.73;4.13;;;;;;;3.25;100.00;99748.41;5019418;28;20037;-59
2023/03/07 01:39:05;;;;;;;5.70;4.40;;;;;;;3.23;100.00;99737.25;5017397;28;20033;-58
2023/03/07 01:41:32;;;;;;;6.30;4.70;;;;;;;3.27;100.00;99738.63;5032771;28;20040;-58
2023/03/07 01:44:01;;;;;;;7.07;4.80;;;;;;;3.20;100.00;99735.72;5016662;28;20034;-59
2023/03/07 01:46:54;;;;;;;8.05;5.25;;;;;;;3.24;100.00;99733.66;5019324;28;20041;-58
2023/03/07 01:49:39;;;;;;;6.60;5.33;;;;;;;3.27;100.00;99728.16;5028706;28;20099;-59
2023/03/07 01:52:05;;;;;;;6.93;5.30;;;;;;;3.31;100.00;99741.78;5034013;28;20633;-58
2023/03/07 01:54:32;;;;;;;8.60;5.67;;;;;;;3.37;100.00;99728.13;5028251;28;20053;-58
2023/03/07 01:57:00;;;;;;;7.22;5.60;;;;;;;3.34;100.00;99723.97;5018262;28;20029;-58
2023/03/07 01:59:33;;;;;;;8.05;5.85;;;;;;;3.43;100.00;99731.94;5022761;28;20040;-58
2023/03/07 02:02:03;;;;;;;9.23;6.03;;;;;;;3.34;100.00;99723.97;5020997;28;20029;-58
2023/03/07 02:04:38;;;;;;;7.20;5.57;;;;;;;3.36;100.00;99716.78;5024702;28;20038;-58
2023/03/07 02:07:05;;;;;;;7.53;5.83;;;;;;;3.32;100.00;99719.84;5020984;28;20045;-58
2023/03/07 02:09:32;;;;;;;9.10;6.23;;;;;;;3.26;100.00;99721.22;5019606;28;20029;-58
2023/03/07 02:12:00;;;;;;;7.80;6.33;;;;;;;3.26;100.00;99710.75;5018463;28;20128;-58
2023/03/07 02:14:26;;;;;;;8.93;6.32;;;;;;;3.39;100.00;99709.63;5022539;28;20121;-59
2023/03/07 02:16:52;;;;;;;9.82;6.40;;;;;;;3.32;100.00;99704.97;5025800;28;20113;-58
2023/03/07 02:19:35;;;;;;;8.07;5.82;;;;;;;3.38;100.00;99702.72;5042479;28;20036;-58
2023/03/07 02:22:09;;;;;;;8.75;5.60;;;;;;;3.38;100.00;99705.34;5027343;28;20040;-58
2023/03/07 02:24:44;;;;;;;9.45;5.63;;;;;;;3.39;100.00;99705.19;5033024;28;20029;-58
2023/03/07 02:27:09;;;;;;;8.87;5.60;;;;;;;3.36;100.00;99701.06;5037043;28;20029;-59
2023/03/07 02:29:35;;;;;;;9.23;6.10;;;;;;;3.30;100.00;99696.41;5030730;28;20442;-58
2023/03/07 02:32:01;;;;;;;8.87;6.03;;;;;;;3.24;100.00;99691.72;5024568;28;20029;-59
2023/03/07 02:34:28;;;;;;;7.93;5.63;;;;;;;3.22;100.00;99691.06;5030172;28;20116;-60
2023/03/07 02:37:31;;;;;;;6.87;5.03;;;;;;;3.35;100.00;99694.19;5035207;28;20087;-61
2023/03/07 02:40:00;;;;;;;6.73;5.20;;;;;;;3.23;100.00;99682.22;5019625;28;20053;-59
2023/03/07 02:42:28;;;;;;;6.87;5.07;;;;;;;3.23;100.00;99683.06;5028372;28;20303;-58
2023/03/07 02:44:59;;;;;;;7.37;5.40;;;;;;;3.28;100.00;99687.88;5032921;28;20104;-58
2023/03/07 02:47:25;;;;;;;7.95;5.20;;;;;;;3.22;100.00;99683.19;5043007;28;20052;-58
2023/03/07 02:49:50;;;;;;;7.60;4.93;;;;;;;3.22;100.00;99684.00;5045931;28;20053;-59
2023/03/07 02:52:15;;;;;;;6.40;5.20;;;;;;;3.19;100.00;99683.47;5030538;28;20055;-59
2023/03/07 02:54:41;;;;;;;6.77;5.03;;;;;;;3.19;100.00;99683.47;5038121;28;20033;-59
2023/03/07 02:57:06;;;;;;;8.30;5.23;;;;;;;3.17;100.00;99685.41;5034586;28;20035;-58
2023/03/07 02:59:31;;;;;;;7.20;5.10;;;;;;;3.21;100.00;99678.94;5029594;28;20037;-60
2023/03/07 03:01:58;;;;;;;9.93;5.57;;;;;;;3.15;100.00;99679.50;5030289;28;20029;-58
2023/03/07 03:04:23;;;;;;;8.32;5.28;;;;;;;3.15;100.00;99674.25;5034609;28;20480;-59
2023/03/07 03:06:49;;;;;;;6.30;4.77;;;;;;;3.15;100.00;99669.81;5030928;28;20084;-59
2023/03/07 03:09:14;;;;;;;7.27;4.90;;;;;;;3.15;100.00;99674.25;5017902;28;20033;-59
2023/03/07 03:11:40;;;;;;;7.70;5.10;;;;;;;3.14;100.00;99672.56;5024798;28;20025;-59
2023/03/07 03:14:05;;;;;;;7.28;5.50;;;;;;;3.14;100.00;99678.66;5028463;28;20114;-58
2023/03/07 03:16:31;;;;;;;7.03;4.70;;;;;;;3.16;100.00;99674.09;5021202;28;20033;-59
2023/03/07 03:18:56;;;;;;;9.67;5.10;;;;;;;3.15;100.00;99676.88;5022809;28;20049;-59
2023/03/07 03:21:21;;;;;;;8.65;5.25;;;;;;;3.13;100.00;99673.56;5022332;28;20036;-59
2023/03/07 03:23:46;;;;;;;8.23;5.05;;;;;;;3.20;100.00;99674.63;5027574;28;20029;-59
2023/03/07 03:26:12;;;;;;;6.73;5.33;;;;;;;3.16;100.00;99670.66;5038979;28;20041;-59
2023/03/07 03:28:39;;;;;;;8.32;5.38;;;;;;;3.15;100.00;99671.63;5030204;28;20511;-58
2023/03/07 03:31:07;;;;;;;7.75;5.35;;;;;;;3.12;100.00;99670.13;5022424;28;20478;-59
2023/03/07 03:33:32;;;;;;;8.77;5.50;;;;;;;3.09;100.00;99667.78;5024432;28;20390;-59
2023/03/07 03:35:59;;;;;;;7.95;5.10;;;;;;;3.16;100.00;99668.03;5017790;28;20108;-61
2023/03/07 03:38:25;;;;;;;8.13;5.40;;;;;;;3.08;100.00;99661.72;5021036;28;20033;-59
2023/03/07 03:40:50;;;;;;;9.20;5.70;;;;;;;3.22;100.00;99665.66;5023062;28;20056;-59
2023/03/07 03:43:17;;;;;;;9.53;5.40;;;;;;;3.17;100.00;99665.28;5020314;28;20095;-58
2023/03/07 03:45:42;;;;;;;7.40;5.30;;;;;;;3.16;100.00;99652.31;5031133;28;20025;-58
2023/03/07 03:48:07;;;;;;;9.33;5.67;;;;;;;3.13;100.00;99652.59;5017850;28;20572;-60
2023/03/07 03:50:33;;;;;;;8.17;5.23;;;;;;;3.20;100.00;99648.44;5020789;28;20053;-58
2023/03/07 03:53:00;;;;;;;6.57;4.83;;;;;;;3.12;100.00;99645.72;5020156;28;21940;-58
2023/03/07 03:55:26;;;;;;;7.53;4.97;;;;;;;3.04;100.00;99644.63;5022725;28;20116;-58
2023/03/07 03:57:51;;;;;;;6.70;4.90;;;;;;;3.05;100.00;99640.19;5022085;28;20112;-59
2023/03/07 04:00:18;;;;;;;6.30;4.50;;;;;;;3.09;100.00;99637.19;5016106;28;20066;-58
2023/03/07 04:02:44;;;;;;;7.57;5.17;;;;;;;3.01;100.00;99633.63;5019652;28;20123;-58
2023/03/07 04:05:10;;;;;;;7.20;5.30;;;;;;;3.00;100.00;99632.78;5018615;28;20045;-60
2023/03/07 04:07:35;;;;;;;7.37;5.20;;;;;;;3.05;100.00;99633.19;5017962;28;20034;-61
2023/03/07 04:10:00;;;;;;;7.33;5.23;;;;;;;3.03;100.00;99622.03;5013360;28;20186;-59
2023/03/07 04:12:25;;;;;;;8.07;5.27;;;;;;;3.02;100.00;99624.78;5017433;28;20124;-58
2023/03/07 04:14:51;;;;;;;7.73;5.47;;;;;;;3.01;100.00;99616.09;5018504;28;20495;-58
2023/03/07 04:17:16;;;;;;;7.40;5.17;;;;;;;3.01;100.00;99621.31;5029073;28;20029;-58
2023/03/07 04:19:41;;;;;;;6.70;5.28;;;;;;;3.04;100.00;99607.97;5025867;28;20025;-60
2023/03/07 04:22:07;;;;;;;7.77;5.07;;;;;;;3.01;100.00;99608.22;5018422;28;20681;-58
2023/03/07 04:24:32;;;;;;;6.03;4.93;;;;;;;3.02;100.00;99604.66;5025811;28;20505;-59
2023/03/07 04:26:57;;;;;;;8.88;4.80;;;;;;;3.02;100.00;99596.81;5049180;28;20029;-58
2023/03/07 04:29:23;;;;;;;6.87;5.13;;;;;;;3.06;100.00;99595.53;5023834;28;20033;-58
2023/03/07 04:31:48;;;;;;;8.50;4.50;;;;;;;3.07;100.00;99596.38;5022551;28;20040;-58
2023/03/07 04:34:13;;;;;;;6.40;5.00;;;;;;;3.03;100.00;99598.47;5025049;28;20101;-58
2023/03/07 04:36:39;;;;;;;8.13;4.80;;;;;;;3.00;100.00;99596.09;5028402;28;20068;-59
2023/03/07 04:39:04;;;;;;;7.60;5.07;;;;;;;3.07;100.00;99591.94;5022787;28;20065;-58
2023/03/07 04:41:29;;;;;;;7.43;4.73;;;;;;;3.05;100.00;99588.66;5028500;28;20408;-59
2023/03/07 04:43:55;;;;;;;6.70;4.70;;;;;;;3.06;100.00;99590.31;5029837;28;20038;-60
2023/03/07 04:46:20;;;;;;;6.28;4.30;;;;;;;3.09;100.00;99583.94;5031479;28;20396;-58
2023/03/07 04:48:46;;;;;;;8.40;4.63;;;;;;;3.09;100.00;99584.78;5020589;28;20056;-58
2023/03/07 04:51:12;;;;;;;8.13;4.50;;;;;;;3.07;100.00;99581.47;5023593;28;20384;-58
2023/03/07 04:53:37;;;;;;;7.17;4.47;;;;;;;3.04;100.00;99579.16;5040171;28;20029;-57
2023/03/07 04:56:05;;;;;;;6.97;4.70;;;;;;;3.06;100.00;99579.81;5027375;28;20033;-58
2023/03/07 04:58:31;;;;;;;9.73;4.73;;;;;;;3.07;100.00;99576.22;5027785;28;20068;-58
2023/03/07 05:00:58;;;;;;;7.50;4.83;;;;;;;3.03;100.00;99574.88;5023823;28;20037;-58
2023/03/07 05:03:25;;;;;;;7.50;5.13;;;;;;;3.05;100.00;99578.19;5027057;28;20417;-58
2023/03/07 05:05:51;;;;;;;11.00;5.50;;;;;;;3.03;100.00;99574.88;5022833;28;20081;-59
2023/03/07 05:08:16;;;;;;;8.03;4.93;;;;;;;3.02;100.00;99578.47;5022466;28;20503;-58
2023/03/07 05:10:42;;;;;;;9.67;5.47;;;;;;;3.06;100.00;99579.81;5016751;28;20045;-58
2023/03/07 05:13:07;;;;;;;9.53;5.40;;;;;;;3.06;100.00;99579.00;5027001;28;20496;-58
2023/03/07 05:15:34;;;;;;;9.83;5.27;;;;;;;3.03;100.00;99567.03;5019231;28;20041;-59
2023/03/07 05:17:59;;;;;;;9.70;5.60;;;;;;;3.02;100.00;99573.25;5019581;28;20116;-58
2023/03/07 05:20:25;;;;;;;9.90;5.03;;;;;;;3.10;100.00;99564.63;5024340;28;20124;-58
2023/03/07 05:22:50;;;;;;;8.87;5.60;;;;;;;2.97;100.00;99570.22;5021182;28;20060;-58
2023/03/07 05:25:16;;;;;;;9.90;5.30;;;;;;;3.00;100.00;99563.88;5025495;28;20064;-58
2023/03/07 05:27:41;;;;;;;9.77;5.57;;;;;;;3.01;100.00;99553.22;5025050;28;20029;-58
2023/03/07 05:30:08;;;;;;;10.93;5.87;;;;;;;2.97;100.00;99551.88;5027296;28;20026;-58
2023/03/07 05:32:33;;;;;;;10.57;6.00;;;;;;;2.93;100.00;99548.72;5029729;28;20037;-59
2023/03/07 05:34:59;;;;;;;10.73;6.27;;;;;;;2.94;100.00;99545.16;5027286;28;20030;-59
2023/03/07 05:37:24;;;;;;;10.60;6.00;;;;;;;2.93;100.00;99538.25;5024132;28;20034;-57
2023/03/07 05:39:49;;;;;;;11.40;5.50;;;;;;;2.96;100.00;99547.59;5033616;28;20113;-58
2023/03/07 05:42:15;;;;;;;10.43;6.03;;;;;;;2.90;100.00;99540.31;5032956;28;20053;-57
2023/03/07 05:44:41;;;;;;;10.93;6.30;;;;;;;2.89;100.00;99542.13;5017880;28;20045;-58
2023/03/07 05:47:06;;;;;;;11.73;5.80;;;;;;;2.92;100.00;99548.88;5021818;28;20033;-57
2023/03/07 05:49:32;;;;;;;11.80;6.40;;;;;;;2.93;100.00;99542.66;5018539;28;20387;-57
2023/03/07 05:51:57;;;;;;;10.00;6.20;;;;;;;2.90;100.00;99537.69;5018012;28;20033;-58
2023/03/07 05:54:24;;;;;;;10.43;6.57;;;;;;;2.93;100.00;99542.66;5016734;28;20148;-59
2023/03/07 05:56:50;;;;;;;11.33;6.43;;;;;;;2.94;100.00;99536.44;5020850;28;20042;-57
2023/03/07 05:59:15;;;;;;;14.03;7.00;;;;;;;2.96;100.00;99537.13;5019273;28;20501;-58
2023/03/07 06:01:41;;;;;;;12.67;6.37;;;;;;;2.97;100.00;99533.56;5018386;28;20028;-57
2023/03/07 06:04:07;;;;;;;11.37;6.10;;;;;;;3.04;100.00;99539.03;5017405;28;20033;-57
2023/03/07 06:06:32;;;;;;;12.13;6.60;;;;;;;2.96;100.00;99537.13;5018720;28;20994;-58
2023/03/07 06:08:58;;;;;;;12.73;6.37;;;;;;;2.96;100.00;99537.97;5025870;28;20029;-58
2023/03/07 06:11:23;;;;;;;9.67;6.27;;;;;;;2.98;100.00;99537.81;5021531;28;20483;-57
2023/03/07 06:13:48;;;;;;;10.10;6.10;;;;;;;2.95;100.00;99541.56;5023548;28;20034;-56
2023/03/07 06:16:14;;;;;;;10.00;6.37;;;;;;;2.98;100.00;99540.44;5022565;28;20025;-56
2023/03/07 06:18:39;;;;;;;10.00;6.20;;;;;;;2.88;100.00;99539.66;5022106;28;20033;-56
2023/03/07 06:21:06;;;;;;;12.33;5.67;;;;;;;2.98;100.00;99540.44;5028905;28;20025;-56
2023/03/07 06:23:34;;;;;;;8.90;5.43;;;;;;;3.00;100.00;99538.50;5022109;28;20393;-56
2023/03/07 06:26:00;;;;;;;9.07;5.47;;;;;;;3.08;100.00;99551.72;5027113;28;20350;-56
2023/03/07 06:28:26;;;;;;;6.87;4.10;;;;;;;3.12;100.00;99554.88;5026251;28;20821;-55
2023/03/07 06:30:52;;;;;;;6.33;3.70;;;;;;;3.05;100.00;99557.22;5023751;28;20470;-57
2023/03/07 06:33:17;;;;;;;5.27;3.40;;;;;;;3.00;100.00;99564.69;5021279;28;20029;-55
2023/03/07 06:35:43;;;;;;;5.00;3.17;;;;;;;2.91;100.00;99562.94;5023864;28;20481;-57
2023/03/07 06:38:12;;;;;;;4.93;3.50;;;;;;;2.70;100.00;99563.94;5019973;28;20041;-58
2023/03/07 06:40:37;;;;;;;7.93;4.00;;;;;;;2.66;100.00;99562.59;5030091;28;20496;-56
2023/03/07 06:43:03;;;;;;;6.77;4.30;;;;;;;2.41;100.00;99556.97;5026920;28;20041;-56
2023/03/07 06:45:29;;;;;;;8.90;5.03;;;;;;;2.25;100.00;99555.78;5026336;28;20455;-57
2023/03/07 06:47:54;;;;;;;6.67;4.73;;;;;;;2.33;100.00;99551.63;5023371;28;20063;-56
2023/03/07 06:50:20;;;;;;;8.43;4.77;;;;;;;2.23;100.00;99543.78;5021773;28;20399;-56
2023/03/07 06:52:45;;;;;;;9.47;5.50;;;;;;;2.15;100.00;99549.72;5024504;28;20117;-55
2023/03/07 06:55:11;;;;;;;9.47;4.80;;;;;;;2.20;100.00;99552.75;5024729;28;20030;-56
2023/03/07 06:57:36;;;;;;;7.27;5.20;;;;;;;2.13;100.00;99559.50;5027577;28;20032;-56
2023/03/07 07:00:04;;;;;;;9.53;5.23;;;;;;;2.09;100.00;99560.72;5024217;28;20041;-55
2023/03/07 07:02:30;;;;;;;10.90;5.60;;;;;;;2.01;100.00;99559.63;5018849;28;20026;-56
2023/03/07 07:04:56;;;;;;;9.23;6.03;;;;;;;1.95;100.00;99562.78;5022154;28;20034;-55
2023/03/07 07:07:22;;;;;;;11.17;5.90;;;;;;;1.95;100.00;99565.41;5020964;28;20049;-55
2023/03/07 07:09:47;;;;;;;10.40;5.93;;;;;;;1.91;100.00;99568.44;5022693;28;20449;-56
2023/03/07 07:12:13;;;;;;;9.17;5.90;;;;;;;1.90;100.00;99564.16;5025274;28;20057;-56
2023/03/07 07:14:38;;;;;;;8.30;5.60;;;;;;;1.85;100.00;99567.19;5025850;28;20032;-56
2023/03/07 07:17:05;;;;;;;9.33;6.07;;;;;;;1.81;100.00;99563.19;5033125;28;20378;-55
2023/03/07 07:19:30;;;;;;;8.47;5.17;;;;;;;1.85;100.00;99560.19;5032421;28;20063;-56
2023/03/07 07:21:56;;;;;;;11.57;6.00;;;;;;;1.74;100.00;99563.72;5021926;28;20612;-56
2023/03/07 07:24:22;;;;;;;9.10;5.40;;;;;;;1.68;100.00;99553.81;5032738;28;20533;-56
2023/03/07 07:26:47;;;;;;;10.53;6.10;;;;;;;1.51;100.00;99557.06;5026230;28;20029;-55
2023/03/07 07:29:13;;;;;;;10.83;5.70;;;;;;;1.45;100.00;99563.69;5016602;28;20477;-57
2023/03/07 07:31:38;;;;;;;9.50;5.93;;;;;;;1.39;100.00;99565.06;5018773;28;20469;-55
2023/03/07 07:34:03;;;;;;;9.63;5.37;;;;;;;1.35;100.00;99568.88;5020578;28;20061;-55
2023/03/07 07:36:29;;;;;;;9.77;5.57;;;;;;;1.36;100.00;99575.75;5018128;28;20026;-56
2023/03/07 07:38:54;;;;;;;11.77;6.40;;;;;;;1.47;100.00;99593.09;5026647;28;20055;-56
2023/03/07 07:41:20;;;;;;;13.93;6.60;;;;;;;1.27;100.00;99607.88;5024496;28;20032;-55
2023/03/07 07:43:47;;;;;;;9.70;6.20;;;;;;;1.15;100.00;99600.16;5025232;28;20090;-56
2023/03/07 07:46:12;;;;;;;11.20;6.67;;;;;;;1.13;100.00;99602.03;5035174;28;20028;-59
2023/03/07 07:48:37;;;;;;;11.83;6.77;;;;;;;1.02;100.00;99612.56;5027357;28;20069;-55
2023/03/07 07:51:03;;;;;;;11.10;6.87;;;;;;;1.02;100.00;99615.19;5026545;28;20040;-55
2023/03/07 07:53:29;;;;;;;12.57;7.03;;;;;;;1.01;100.00;99623.97;5016207;28;20030;-55
2023/03/07 07:55:55;;;;;;;10.53;6.70;;;;;;;1.03;100.00;99622.09;5022933;28;20045;-55
2023/03/07 07:58:20;;;;;;;13.03;7.50;;;;;;;1.00;100.00;99617.94;5026925;28;20072;-55
2023/03/07 08:00:46;;;;;;;12.90;7.63;;;;;;;1.00;100.00;99617.09;5025214;28;20041;-56
2023/03/07 08:03:11;;;;;;;12.70;7.17;;;;;;;1.02;100.00;99600.34;5024598;28;20424;-55
2023/03/07 08:05:37;;;;;;;12.00;7.57;;;;;;;1.04;100.00;99605.47;5031555;28;20033;-55
2023/03/07 08:08:02;;;;;;;14.87;8.03;;;;;;;1.11;100.00;99609.19;5028529;28;20025;-55
2023/03/07 08:10:27;;;;;;;12.07;6.93;;;;;;;1.13;100.00;99615.09;5019175;28;20048;-56
2023/03/07 08:12:53;;;;;;;13.57;7.73;;;;;;;1.08;100.00;99609.44;5036453;28;20091;-53
2023/03/07 08:15:20;;;;;;;12.47;7.77;;;;;;;1.10;100.00;99612.78;5040836;28;20037;-55
2023/03/07 08:17:46;;;;;;;14.23;7.90;;;;;;;1.13;100.00;99622.94;5029881;28;20671;-55
2023/03/07 08:20:11;;;;;;;13.43;8.07;;;;;;;1.15;100.00;99626.28;5037461;28;20034;-56
2023/03/07 08:22:38;;;;;;;14.43;8.30;;;;;;;1.14;100.00;99637.66;5024476;28;20033;-55
2023/03/07 08:25:05;;;;;;;13.40;8.20;;;;;;;1.16;100.00;99630.53;5024293;28;20040;-56
2023/03/07 08:27:31;;;;;;;14.20;8.57;;;;;;;1.18;100.00;99640.84;5029561;28;20056;-55
2023/03/07 08:29:57;;;;;;;14.40;8.17;;;;;;;1.14;100.00;99640.25;5029000;28;20033;-58
2023/03/07 08:32:22;;;;;;;13.67;8.00;;;;;;;1.16;100.00;99633.13;5018978;28;20060;-57
2023/03/07 08:34:47;;;;;;;12.40;7.80;;;;;;;1.21;100.00;99630.13;5018920;28;20434;-55
2023/03/07 08:37:13;;;;;;;14.20;7.40;;;;;;;1.23;100.00;99648.28;5017918;28;20528;-57
2023/03/07 08:39:38;;;;;;;12.20;7.87;;;;;;;1.16;100.00;99627.91;5021959;28;20533;-55
2023/03/07 08:42:03;;;;;;;9.63;6.23;;;;;;;1.37;100.00;99649.72;5038186;28;20513;-56
2023/03/07 08:44:29;;;;;;;8.83;6.50;;;;;;;1.18;100.00;99631.22;5035354;28;20507;-58
2023/03/07 08:46:54;;;;;;;9.73;6.17;;;;;;;1.25;100.00;99641.13;5031901;28;20473;-57
2023/03/07 08:49:19;;;;;;;12.13;7.60;;;;;;;1.22;100.00;99647.44;5026965;28;20039;-58
2023/03/07 08:51:48;;;;;;;12.60;8.53;;;;;;;1.05;100.00;99641.06;5035125;28;20041;-58
2023/03/07 08:54:13;;;;;;;12.20;8.13;;;;;;;1.12;100.00;99644.78;5030384;28;20033;-58
2023/03/07 08:56:38;;;;;;;11.97;8.37;;;;;;;1.09;100.00;99642.47;5025515;28;20107;-57
2023/03/07 08:59:04;;;;;;;12.33;8.30;;;;;;;1.10;100.00;99638.88;5030421;28;20052;-57
2023/03/07 09:01:29;;;;;;;12.77;8.70;;;;;;;1.13;100.00;99629.97;5034729;28;20033;-57
2023/03/07 09:03:54;;;;;;;12.37;8.73;;;;;;;1.13;100.00;99628.16;5032968;28;20033;-58
2023/03/07 09:06:20;;;;;;;10.80;7.00;;;;;;;1.17;100.00;99629.56;5028370;28;20035;-57
2023/03/07 09:08:46;;;;;;;11.23;7.27;;;;;;;1.23;100.00;99632.63;5041188;28;20033;-59
2023/03/07 09:11:12;;;;;;;9.40;6.43;;;;;;;1.29;100.00;99634.72;5028091;28;20040;-58
2023/03/07 09:13:38;;;;;;;10.97;7.10;;;;;;;1.27;100.00;99626.16;5027418;28;20026;-58
2023/03/07 09:16:05;;;;;;;10.50;7.57;;;;;;;1.31;100.00;99640.63;5034852;28;20052;-57
2023/03/07 09:18:30;;;;;;;10.93;8.03;;;;;;;1.33;100.00;99638.72;5029918;28;20033;-58
2023/03/07 09:20:58;;;;;;;11.40;8.10;;;;;;;1.33;100.00;99636.09;5028462;28;20100;-59
2023/03/07 09:23:23;;;;;;;12.50;7.90;;;;;;;1.32;100.00;99644.88;5035604;28;20057;-58
2023/03/07 09:25:49;;;;;;;11.00;7.57;;;;;;;1.35;100.00;99642.00;5042031;28;20523;-58
2023/03/07 09:28:14;;;;;;;10.53;7.13;;;;;;;1.34;100.00;99650.81;5041541;28;20036;-55
2023/03/07 09:30:39;;;;;;;11.23;7.33;;;;;;;1.34;100.00;99659.47;5044328;28;20041;-56
2023/03/07 09:33:05;;;;;;;10.57;7.37;;;;;;;1.32;100.00;99663.16;5025297;28;20035;-56
2023/03/07 09:35:30;;;;;;;10.23;7.30;;;;;;;1.37;100.00;99671.44;5029262;28;20048;-56
2023/03/07 09:37:55;;;;;;;12.23;7.50;;;;;;;1.37;100.00;99660.19;5024627;28;20030;-55
2023/03/07 09:40:25;;;;;;;12.03;8.10;;;;;;;1.39;100.00;99658.25;5025890;28;20081;-56
2023/03/07 09:42:56;;;;;;;13.23;8.23;;;;;;;1.33;100.00;99663.03;5030044;28;20037;-56
2023/03/07 09:45:34;;;;;;;12.67;8.17;;;;;;;1.41;100.00;99651.09;5048729;28;20036;-57
2023/03/07 09:48:14;;;;;;;13.13;8.80;;;;;;;1.45;100.00;99658.56;5030456;28;20034;-56
2023/03/07 09:50:53;;;;;;;11.70;8.33;;;;;;;1.50;100.00;99662.56;5031043;28;20040;-55
2023/03/07 09:53:58;;;;;;;12.20;8.67;;;;;;;1.56;100.00;99660.25;5032342;28;20192;-55
2023/03/07 09:56:34;;;;;;;13.23;9.07;;;;;;;1.55;100.00;99660.38;5015404;28;20042;-55
2023/03/07 09:59:21;;;;;;;13.40;9.50;;;;;;;1.55;100.00;99657.75;5025269;28;20056;-56
2023/03/07 10:01:50;;;;;;;15.13;9.53;;;;;;;1.58;100.00;99655.72;5046673;28;20064;-55
2023/03/07 10:04:34;;;;;;;14.93;10.20;;;;;;;1.62;100.00;99651.03;5044927;28;20112;-54
2023/03/07 10:07:02;;;;;;;14.57;10.00;;;;;;;1.62;100.00;99656.28;5030620;28;20032;-56
2023/03/07 10:09:28;;;;;;;14.33;10.47;;;;;;;1.64;100.00;99656.97;5037208;28;20497;-55
2023/03/07 10:12:17;;;;;;;14.33;10.43;;;;;;;1.65;100.00;99653.41;5022892;28;20113;-55
2023/03/07 10:14:53;;;;;;;14.83;10.57;;;;;;;1.66;100.00;99649.81;5045133;28;20041;-55
2023/03/07 10:17:48;;;;;;;15.03;10.47;;;;;;;1.71;100.00;99657.25;5036448;28;20041;-54
2023/03/07 10:20:30;;;;;;;14.83;10.30;;;;;;;1.72;100.00;99657.13;5030201;28;20131;-55
2023/03/07 10:23:13;;;;;;;15.80;10.30;;;;;;;1.68;100.00;99660.97;5028986;28;20033;-56
2023/03/07 10:26:01;;;;;;;14.97;10.50;;;;;;;1.71;100.00;99658.09;5034338;28;20025;-55
2023/03/07 10:28:32;;;;;;;18.33;11.10;;;;;;;1.73;100.00;99661.41;5026652;28;20045;-56
2023/03/07 10:31:09;;;;;;;17.27;11.53;;;;;;;1.77;100.00;99659.34;5022120;28;20051;-57
2023/03/07 10:33:36;;;;;;;15.30;10.40;;;;;;;1.84;100.00;99651.81;5030123;28;20029;-56
2023/03/07 10:36:31;;;;;;;14.67;10.07;;;;;;;1.85;100.00;99658.69;5033229;28;20026;-55
2023/03/07 10:39:14;;;;;;;13.57;9.57;;;;;;;1.86;100.00;99652.47;5032277;28;20038;-55
2023/03/07 10:41:39;;;;;;;12.27;8.50;;;;;;;1.83;100.00;99650.16;5029149;28;20027;-55
2023/03/07 10:44:05;;;;;;;11.27;8.10;;;;;;;1.89;100.00;99652.22;5029921;28;20485;-55
2023/03/07 10:46:31;;;;;;;10.20;7.53;;;;;;;1.89;100.00;99652.22;5020550;28;20069;-57
2023/03/07 10:49:07;;;;;;;11.20;7.30;;;;;;;1.93;100.00;99650.97;5036113;28;20045;-59
2023/03/07 10:51:44;;;;;;;9.13;7.03;;;;;;;1.93;100.00;99650.97;5032262;28;20041;-56
2023/03/07 10:54:15;;;;;;;10.63;7.10;;;;;;;1.95;100.00;99654.31;5021620;28;20026;-55
2023/03/07 10:57:09;;;;;;;8.43;6.37;;;;;;;1.99;100.00;99655.69;5026492;28;20029;-56
2023/03/07 10:59:37;;;;;;;8.57;6.30;;;;;;;2.00;100.00;99662.56;5022550;28;20033;-55
2023/03/07 11:02:25;;;;;;;9.47;6.67;;;;;;;1.96;100.00;99661.19;5026768;28;20029;-55
2023/03/07 11:04:51;;;;;;;9.07;6.50;;;;;;;1.95;100.00;99658.69;5028479;28;20059;-56
2023/03/07 11:07:26;;;;;;;9.57;6.80;;;;;;;1.99;100.00;99654.88;5029463;28;20121;-56
2023/03/07 11:09:52;;;;;;;8.63;6.07;;;;;;;2.04;100.00;99657.06;5032778;28;20120;-55
2023/03/07 11:12:22;;;;;;;8.47;6.30;;;;;;;2.10;100.00;99656.53;5027134;28;20157;-57
2023/03/07 11:14:50;;;;;;;10.10;6.23;;;;;;;2.14;100.00;99655.28;5027558;28;20025;-54
2023/03/07 11:17:23;;;;;;;8.30;6.10;;;;;;;2.13;100.00;99656.25;5030028;28;20106;-55
2023/03/07 11:19:52;;;;;;;;;;;;;;;2.35;100.00;99662.19;5033873;28;20021;-57
2023/03/07 11:22:27;;;;;;;8.17;6.10;;;;;;;2.16;100.00;99663.81;5033300;28;19961;-56
2023/03/07 11:25:08;;;;;;;8.13;5.80;;;;;;;2.10;100.00;99661.75;5018215;28;20030;-57
2023/03/07 11:27:46;;;;;;;8.47;5.83;;;;;;;2.17;100.00;99662.84;5038457;28;20034;-57
2023/03/07 11:30:15;;;;;;;8.30;5.93;;;;;;;2.18;100.00;99659.31;5020851;28;20030;-58
2023/03/07 11:32:46;;;;;;;9.00;6.43;;;;;;;2.21;100.00;99658.22;5023886;28;20033;-56